Time;durP1;ratioP1;P1;durP2;ratioP2;P2;SDS_P1;SDS_P2;PMS_P1;PMS_P2;Temp;Humidity;BMP_temperature;BMP_pressure;BME280_temperature;BME280_humidity;BME280_pressure;Samples;Min_cycle;Max_cycle;Signal;HPM_P1;HPM_P2
2023/12/25 00:00:33;;;;;;;;;2.00;2.00;;;;;12.47;100.00;97155.16;6246345;28;96301;-56
2023/12/25 00:03:36;;;;;;;;;1.75;1.75;;;;;12.57;100.00;97167.84;6243336;28;96268;-56
2023/12/25 00:06:52;;;;;;;;;2.00;2.00;;;;;12.58;100.00;97181.09;6234104;28;96279;-57
2023/12/25 00:09:56;;;;;;;;;2.00;2.00;;;;;12.60;100.00;97172.72;6247124;28;96283;-57
2023/12/25 00:12:59;;;;;;;;;2.00;2.00;;;;;12.74;100.00;97165.63;6239371;28;96287;-56
2023/12/25 00:16:03;;;;;;;;;3.00;3.00;;;;;12.72;100.00;97165.06;6246625;28;97529;-56
2023/12/25 00:19:06;;;;;;;;;2.40;2.40;;;;;12.79;100.00;97170.19;6249417;28;96354;-57
2023/12/25 00:22:09;;;;;;;;;2.60;2.40;;;;;12.78;100.00;97173.97;6250008;28;96255;-56
2023/12/25 00:25:14;;;;;;;;;2.00;2.00;;;;;12.79;100.00;97162.09;6244438;28;96288;-57
2023/12/25 00:28:17;;;;;;;;;2.00;2.00;;;;;12.85;100.00;97161.75;6244195;28;96360;-56
2023/12/25 00:31:20;;;;;;;;;1.25;1.25;;;;;12.87;100.00;97169.59;6237601;28;96319;-57
2023/12/25 00:34:23;;;;;;;;;2.00;2.00;;;;;13.01;100.00;97171.44;6246074;28;96218;-57
2023/12/25 00:37:26;;;;;;;;;2.00;2.00;;;;;13.10;100.00;97165.41;6240785;28;96338;-57
2023/12/25 00:40:31;;;;;;;;;2.00;2.00;;;;;13.01;100.00;97147.06;6232538;28;97057;-56
2023/12/25 00:43:34;;;;;;;;;2.00;2.00;;;;;13.19;100.00;97155.69;6231190;28;96326;-57
2023/12/25 00:46:37;;;;;;;;;2.00;2.00;;;;;13.25;100.00;97158.06;6236598;28;97727;-57
2023/12/25 00:49:40;;;;;;;;;1.00;1.00;;;;;13.25;100.00;97166.16;6232371;28;97352;-58
2023/12/25 00:52:43;;;;;;;;;2.60;2.00;;;;;13.37;100.00;97168.53;6250479;28;96326;-57
2023/12/25 00:55:48;;;;;;;;;2.00;2.00;;;;;13.44;100.00;97175.25;6229055;28;96207;-57
2023/12/25 00:58:51;;;;;;;;;2.00;2.00;;;;;13.50;100.00;97164.38;6237964;28;96218;-57
2023/12/25 01:01:54;;;;;;;;;1.00;1.00;;;;;13.33;100.00;97135.00;6245377;28;96257;-57
2023/12/25 01:04:57;;;;;;;;;2.00;2.00;;;;;13.52;100.00;97167.63;6244514;27;96282;-56
2023/12/25 01:08:00;;;;;;;;;2.00;2.00;;;;;13.57;100.00;97154.06;6252123;28;96264;-56
2023/12/25 01:11:06;;;;;;;;;2.00;2.00;;;;;13.59;100.00;97163.50;6251677;28;96357;-57
2023/12/25 01:14:09;;;;;;;;;2.00;2.00;;;;;13.71;100.00;97160.44;6251654;28;96313;-57
2023/12/25 01:17:12;;;;;;;;;2.00;2.00;;;;;13.71;100.00;97157.72;6249912;28;96200;-56
2023/12/25 01:20:15;;;;;;;;;3.20;3.00;;;;;13.73;100.00;97166.38;6253849;28;96205;-57
2023/12/25 01:23:18;;;;;;;;;2.00;2.00;;;;;13.83;100.00;97174.41;6255636;28;96888;-57
2023/12/25 01:26:23;;;;;;;;;2.00;2.00;;;;;13.82;100.00;97172.81;6254368;28;96381;-56
2023/12/25 01:29:26;;;;;;;;;2.00;2.00;;;;;13.86;100.00;97174.66;6255745;28;96557;-57
2023/12/25 01:32:29;;;;;;;;;1.60;1.60;;;;;13.92;100.00;97175.44;6242963;28;96278;-57
2023/12/25 01:35:32;;;;;;;;;1.00;1.00;;;;;13.95;100.00;97157.78;6235229;28;96297;-57
2023/12/25 01:38:36;;;;;;;;;1.40;1.40;;;;;14.05;100.00;97182.06;6237926;28;96223;-57
2023/12/25 01:41:40;;;;;;;;;3.00;3.00;;;;;14.22;100.00;97198.72;6239129;28;96328;-57
2023/12/25 01:44:44;;;;;;;;;1.00;1.00;;;;;14.28;100.00;97179.41;6255036;28;97247;-57
2023/12/25 01:47:49;;;;;;;;;2.00;2.00;;;;;14.22;100.00;97188.66;6254873;27;97495;-57
2023/12/25 01:50:56;;;;;;;;;2.50;2.00;;;;;14.24;100.00;97191.09;6255742;28;96252;-57
2023/12/25 01:54:01;;;;;;;;;2.00;2.00;;;;;14.41;100.00;97196.13;6244101;28;97072;-57
2023/12/25 01:57:06;;;;;;;;;0.00;0.00;;;;;14.48;100.00;97191.97;6230858;28;96481;-57
2023/12/25 02:00:10;;;;;;;;;1.00;1.00;;;;;14.46;100.00;97217.75;6213927;28;96484;-57
2023/12/25 02:03:17;;;;;;;;;1.00;1.00;;;;;14.50;100.00;97210.66;6222720;22;96700;-56
2023/12/25 02:06:20;;;;;;;;;2.60;2.00;;;;;14.44;100.00;97193.63;6227145;28;97586;-56
2023/12/25 02:09:24;;;;;;;;;1.00;1.00;;;;;14.46;100.00;97179.81;6181493;28;96466;-55
2023/12/25 02:12:28;;;;;;;;;3.00;3.00;;;;;14.55;100.00;97162.63;6193787;28;96373;-55
2023/12/25 02:15:32;;;;;;;;;2.00;2.00;;;;;14.62;100.00;97183.94;6215301;28;96535;-56
2023/12/25 02:18:36;;;;;;;;;1.00;1.00;;;;;14.55;100.00;97170.75;6224461;28;96365;-56
2023/12/25 02:21:41;;;;;;;;;1.00;1.00;;;;;14.60;100.00;97161.75;6224934;28;96301;-55
2023/12/25 02:24:52;;;;;;;;;2.00;2.00;;;;;14.61;100.00;97161.44;6189673;28;98482;-55
2023/12/25 02:27:57;;;;;;;;;1.33;1.33;;;;;14.69;100.00;97163.53;6205642;28;96435;-57
2023/12/25 02:31:00;;;;;;;;;2.00;2.00;;;;;14.74;100.00;97162.66;6223741;28;96374;-55
2023/12/25 02:34:03;;;;;;;;;1.00;1.00;;;;;14.86;100.00;97170.34;6220253;28;96373;-55
2023/12/25 02:37:06;;;;;;;;;2.40;2.40;;;;;14.84;100.00;97159.81;6202060;28;96360;-56
2023/12/25 02:40:10;;;;;;;;;3.00;2.60;;;;;14.89;100.00;97151.63;6222783;28;96953;-56
2023/12/25 02:43:15;;;;;;;;;2.40;2.40;;;;;14.87;100.00;97155.69;6224274;28;96300;-56
2023/12/25 02:46:18;;;;;;;;;2.00;2.00;;;;;15.00;100.00;97161.22;6224808;28;96269;-56
2023/12/25 02:49:21;;;;;;;;;1.00;1.00;;;;;15.00;100.00;97174.78;6220992;28;98911;-56
2023/12/25 02:52:24;;;;;;;;;1.00;1.00;;;;;14.99;100.00;97180.53;6223624;28;96610;-56
2023/12/25 02:55:28;;;;;;;;;1.40;1.40;;;;;15.06;100.00;97184.47;6215411;28;96536;-56
2023/12/25 02:58:33;;;;;;;;;2.00;2.00;;;;;15.05;100.00;97176.66;6200342;28;96994;-56
2023/12/25 03:01:36;;;;;;;;;1.50;1.50;;;;;15.06;100.00;97170.09;6216192;28;96583;-56
2023/12/25 03:04:39;;;;;;;;;2.00;2.00;;;;;15.24;100.00;97185.63;6224988;28;96516;-56
2023/12/25 03:07:42;;;;;;;;;1.00;1.00;;;;;15.34;100.00;97192.81;6223579;28;96839;-56
2023/12/25 03:10:46;;;;;;;;;2.00;2.00;;;;;15.28;100.00;97178.50;6207042;28;96316;-56
2023/12/25 03:13:50;;;;;;;;;3.00;3.00;;;;;15.27;100.00;97176.06;6209292;28;96365;-56
2023/12/25 03:16:53;;;;;;;;;2.00;2.00;;;;;15.33;100.00;97189.28;6223921;28;96272;-56
2023/12/25 03:19:56;;;;;;;;;2.00;2.00;;;;;15.42;100.00;97184.78;6199975;28;96204;-59
2023/12/25 03:22:59;;;;;;;;;1.40;1.40;;;;;15.43;100.00;97191.84;6213273;28;96871;-59
2023/12/25 03:26:03;;;;;;;;;2.00;1.80;;;;;15.49;100.00;97182.50;6213274;28;96396;-59
2023/12/25 03:29:08;;;;;;;;;1.00;1.00;;;;;15.54;100.00;97190.59;6186546;28;98994;-59
2023/12/25 03:32:11;;;;;;;;;2.40;2.40;;;;;15.46;100.00;97191.25;6191593;28;96638;-59
2023/12/25 03:35:14;;;;;;;;;3.40;3.00;;;;;15.49;100.00;97192.59;6205663;28;96298;-59
2023/12/25 03:38:18;;;;;;;;;1.40;1.40;;;;;15.53;100.00;97178.16;6218644;28;96650;-59
2023/12/25 03:41:22;;;;;;;;;1.20;1.20;;;;;15.59;100.00;97181.56;6213481;28;96206;-59
2023/12/25 03:44:26;;;;;;;;;3.40;3.40;;;;;15.68;100.00;97184.44;6183927;28;96309;-59
2023/12/25 03:47:29;;;;;;;;;1.60;1.60;;;;;15.64;100.00;97178.78;6187524;28;96368;-58
2023/12/25 03:50:32;;;;;;;;;2.00;2.00;;;;;15.61;100.00;97182.09;6209182;28;96422;-59
2023/12/25 03:53:36;;;;;;;;;2.00;2.00;;;;;15.51;100.00;97191.22;6209281;28;96475;-58
2023/12/25 03:56:39;;;;;;;;;1.40;1.40;;;;;15.70;100.00;97180.31;6213542;28;96365;-59
2023/12/25 03:59:44;;;;;;;;;1.00;1.00;;;;;15.76;100.00;97198.16;6213705;28;96474;-59
2023/12/25 04:02:47;;;;;;;;;2.00;2.00;;;;;15.87;100.00;97202.34;6194348;28;96678;-59
2023/12/25 04:05:50;;;;;;;;;1.00;1.00;;;;;15.93;100.00;97203.06;6194925;28;96486;-59
2023/12/25 04:08:53;;;;;;;;;0.00;0.00;;;;;15.87;100.00;97212.41;6188960;28;96323;-59
2023/12/25 04:11:57;;;;;;;;;2.00;2.00;;;;;15.88;100.00;97211.31;6188652;28;96319;-58
2023/12/25 04:15:01;;;;;;;;;2.00;2.00;;;;;15.80;100.00;97211.94;6185772;28;96472;-59
2023/12/25 04:18:06;;;;;;;;;2.00;2.00;;;;;15.80;100.00;97206.53;6202663;28;96298;-59
2023/12/25 04:21:09;;;;;;;;;1.20;1.20;;;;;15.69;100.00;97233.03;6195364;28;98018;-59
2023/12/25 04:24:12;;;;;;;;;2.00;2.00;;;;;15.70;100.00;97226.50;6213776;28;96386;-59
2023/12/25 04:27:15;;;;;;;;;1.33;1.33;;;;;15.67;100.00;97223.56;6196511;28;97069;-58
2023/12/25 04:30:20;;;;;;;;;2.00;2.00;;;;;15.62;100.00;97229.09;6208406;28;96318;-57
2023/12/25 04:33:23;;;;;;;;;1.50;1.50;;;;;15.53;100.00;97227.03;6218281;28;96328;-57
2023/12/25 04:36:29;;;;;;;;;2.00;2.00;;;;;15.65;100.00;97242.88;6209753;28;96819;-57
2023/12/25 04:39:33;;;;;;;;;1.00;1.00;;;;;15.67;100.00;97248.03;6236538;28;96413;-57
2023/12/25 04:42:36;;;;;;;;;1.60;1.40;;;;;15.62;100.00;97251.63;6218240;28;96247;-57
2023/12/25 04:45:41;;;;;;;;;3.00;3.00;;;;;15.65;100.00;97255.66;6229206;28;96879;-57
2023/12/25 04:48:44;;;;;;;;;2.00;2.00;;;;;15.46;100.00;97242.03;6223833;28;96410;-57
2023/12/25 04:51:47;;;;;;;;;3.00;3.00;;;;;15.63;100.00;97266.81;6212412;28;96392;-57
2023/12/25 04:54:51;;;;;;;;;2.00;2.00;;;;;15.50;100.00;97281.91;6219697;28;96560;-58
2023/12/25 04:57:54;;;;;;;;;3.00;3.00;;;;;15.63;100.00;97296.72;6216843;28;96252;-57
2023/12/25 05:00:58;;;;;;;;;3.00;2.00;;;;;15.59;100.00;97282.06;6220352;28;96878;-57
2023/12/25 05:04:01;;;;;;;;;3.00;3.00;;;;;15.50;100.00;97309.06;6228182;28;96870;-57
2023/12/25 05:07:05;;;;;;;;;1.00;1.00;;;;;15.58;100.00;97303.03;6221229;28;96231;-57
2023/12/25 05:10:09;;;;;;;;;3.00;3.00;;;;;15.57;100.00;97308.72;6220356;28;96400;-57
2023/12/25 05:13:12;;;;;;;;;2.00;2.00;;;;;15.48;100.00;97313.97;6222521;28;96505;-58
2023/12/25 05:16:16;;;;;;;;;2.00;2.00;;;;;15.40;100.00;97303.75;6218508;28;96329;-57
2023/12/25 05:19:21;;;;;;;;;1.00;1.00;;;;;15.50;100.00;97309.06;6237476;28;96319;-57
2023/12/25 05:22:24;;;;;;;;;2.75;2.75;;;;;15.37;100.00;97309.78;6218259;28;97720;-58
2023/12/25 05:25:27;;;;;;;;;2.00;2.00;;;;;15.49;100.00;97306.66;6240967;28;96254;-57
2023/12/25 05:28:30;;;;;;;;;1.00;1.00;;;;;15.48;100.00;97332.19;6238544;28;96342;-57
2023/12/25 05:31:35;;;;;;;;;3.00;3.00;;;;;15.52;100.00;97330.53;6224600;28;96884;-56
2023/12/25 05:34:38;;;;;;;;;2.00;2.00;;;;;15.34;100.00;97320.41;6231201;28;97969;-57
2023/12/25 05:37:41;;;;;;;;;2.00;2.00;;;;;15.28;100.00;97332.44;6234489;28;96295;-57
2023/12/25 05:40:44;;;;;;;;;3.00;3.00;;;;;15.36;100.00;97324.44;6218150;28;96689;-60
2023/12/25 05:43:47;;;;;;;;;2.00;1.80;;;;;15.20;100.00;97333.06;6215381;28;96407;-60
2023/12/25 05:46:51;;;;;;;;;2.00;2.00;;;;;15.22;100.00;97345.25;6213866;28;96271;-60
2023/12/25 05:49:55;;;;;;;;;1.00;1.00;;;;;15.33;100.00;97329.66;6189914;28;96385;-60
2023/12/25 05:52:58;;;;;;;;;0.60;0.60;;;;;15.07;100.00;97337.25;6215253;28;96340;-60
2023/12/25 05:56:01;;;;;;;;;3.00;2.00;;;;;15.10;100.00;97337.50;6215000;28;96932;-60
2023/12/25 05:59:05;;;;;;;;;2.00;2.00;;;;;15.10;100.00;97329.34;6215337;28;96519;-60
2023/12/25 06:02:11;;;;;;;;;1.00;1.00;;;;;15.06;100.00;97333.75;6215106;28;96377;-60
2023/12/25 06:05:14;;;;;;;;;3.00;3.00;;;;;15.02;100.00;97334.59;6197934;28;96263;-60
2023/12/25 06:08:17;;;;;;;;;3.00;2.00;;;;;14.98;100.00;97328.94;6215542;28;96425;-59
2023/12/25 06:11:20;;;;;;;;;0.60;0.60;;;;;15.04;100.00;97338.66;6215390;28;96540;-59
2023/12/25 06:14:24;;;;;;;;;1.40;1.40;;;;;15.07;100.00;97334.56;6191403;28;96440;-59
2023/12/25 06:17:28;;;;;;;;;2.00;2.00;;;;;15.10;100.00;97336.72;6189186;28;100317;-60
2023/12/25 06:20:31;;;;;;;;;2.00;2.00;;;;;15.15;100.00;97333.91;6198349;28;96221;-60
2023/12/25 06:23:35;;;;;;;;;3.00;2.00;;;;;15.09;100.00;97335.09;6215198;28;96989;-59
2023/12/25 06:26:38;;;;;;;;;2.00;2.00;;;;;15.08;100.00;97342.41;6185191;28;98998;-59
2023/12/25 06:29:41;;;;;;;;;2.00;2.00;;;;;15.05;100.00;97344.91;6214890;28;96381;-59
2023/12/25 06:32:46;;;;;;;;;2.00;2.00;;;;;15.10;100.00;97339.44;6213116;28;96482;-60
2023/12/25 06:35:49;;;;;;;;;1.00;1.00;;;;;15.07;100.00;97343.50;6210537;28;96373;-59
2023/12/25 06:38:52;;;;;;;;;2.00;2.00;;;;;15.19;100.00;97364.84;6197182;28;96343;-60
2023/12/25 06:41:55;;;;;;;;;4.00;4.00;;;;;15.15;100.00;97352.91;6215054;28;96389;-59
2023/12/25 06:44:58;;;;;;;;;2.00;2.00;;;;;15.25;100.00;97360.94;6213980;28;96981;-59
2023/12/25 06:48:03;;;;;;;;;2.00;2.00;;;;;15.34;100.00;97347.56;6222896;28;98979;-60
2023/12/25 06:51:08;;;;;;;;;4.00;4.00;;;;;15.41;100.00;97348.00;6222374;28;97892;-55
2023/12/25 06:54:12;;;;;;;;;3.00;3.00;;;;;15.42;100.00;97336.06;6188063;28;97228;-55
2023/12/25 06:57:15;;;;;;;;;2.00;2.00;;;;;15.49;100.00;97342.72;6222739;28;96401;-55
2023/12/25 07:00:19;;;;;;;;;1.00;1.00;;;;;15.55;100.00;97341.59;6222682;28;96751;-55
2023/12/25 07:03:23;;;;;;;;;3.00;2.25;;;;;15.51;100.00;97335.16;6221531;28;96240;-56
2023/12/25 07:06:26;;;;;;;;;2.00;2.00;;;;;15.70;100.00;97366.97;6186490;28;96370;-56
2023/12/25 07:09:30;;;;;;;;;2.00;2.00;;;;;15.76;100.00;97377.47;6198229;28;98618;-56
2023/12/25 07:12:33;;;;;;;;;2.00;2.00;;;;;15.75;100.00;97372.31;6222500;28;96279;-55
2023/12/25 07:15:38;;;;;;;;;2.00;2.00;;;;;15.83;100.00;97361.59;6219734;28;96256;-56
2023/12/25 07:18:43;;;;;;;;;2.00;2.00;;;;;15.81;100.00;97380.13;6248443;28;96290;-55
2023/12/25 07:21:46;;;;;;;;;2.00;2.00;;;;;15.80;100.00;97392.09;6220490;28;97035;-56
2023/12/25 07:24:49;;;;;;;;;1.00;1.00;;;;;15.81;100.00;97384.75;6222546;28;96476;-57
2023/12/25 07:27:52;;;;;;;;;1.50;1.50;;;;;15.85;100.00;97394.75;6202139;28;97066;-56
2023/12/25 07:30:57;;;;;;;;;4.00;4.00;;;;;15.86;100.00;97377.34;6190195;28;96753;-56
2023/12/25 07:34:02;;;;;;;;;3.00;3.00;;;;;15.78;100.00;97386.16;6222459;28;96404;-57
2023/12/25 07:37:05;;;;;;;;;4.00;4.00;;;;;15.76;100.00;97379.38;6187185;28;96799;-56
2023/12/25 07:40:10;;;;;;;;;2.00;2.00;;;;;15.74;100.00;97384.28;6219322;28;96465;-55
2023/12/25 07:43:13;;;;;;;;;2.00;2.00;;;;;15.82;100.00;97380.94;6222220;28;96227;-56
2023/12/25 07:46:16;;;;;;;;;1.00;1.00;;;;;15.70;100.00;97391.41;6217577;28;96322;-56
2023/12/25 07:49:21;;;;;;;;;1.00;1.00;;;;;15.71;100.00;97393.03;6219684;28;97180;-56
2023/12/25 07:52:25;;;;;;;;;1.40;1.40;;;;;15.81;100.00;97390.19;6195877;28;98350;-56
2023/12/25 07:55:29;;;;;;;;;2.00;2.00;;;;;15.89;100.00;97397.69;6218654;28;96264;-55
2023/12/25 07:58:33;;;;;;;;;1.00;1.00;;;;;15.92;100.00;97405.28;6223829;28;96356;-55
2023/12/25 08:01:36;;;;;;;;;2.40;2.00;;;;;15.99;100.00;97397.56;6210677;28;97089;-60
2023/12/25 08:04:40;;;;;;;;;1.40;1.40;;;;;16.37;100.00;97399.16;6221026;28;96418;-60
2023/12/25 08:07:43;;;;;;;;;4.00;3.00;;;;;16.85;100.00;97391.66;6209950;28;96446;-60
2023/12/25 08:10:46;;;;;;;;;1.00;1.00;;;;;17.17;100.00;97384.53;6176092;28;97530;-60
2023/12/25 08:13:49;;;;;;;;;1.00;1.00;;;;;17.00;100.00;97396.03;6205242;28;96785;-60
2023/12/25 08:16:53;;;;;;;;;2.00;2.00;;;;;16.85;100.00;97388.13;6236979;28;96299;-60
2023/12/25 08:19:57;;;;;;;;;2.00;2.00;;;;;17.20;100.00;97400.31;6199143;28;96475;-60
2023/12/25 08:23:01;;;;;;;;;1.00;1.00;;;;;17.48;100.00;97401.13;6205982;28;97539;-60
2023/12/25 08:26:04;;;;;;;;;2.00;1.00;;;;;17.49;100.00;97383.69;6206672;28;96718;-60
2023/12/25 08:29:08;;;;;;;;;2.00;2.00;;;;;17.39;100.00;97389.31;6194878;28;97162;-59
2023/12/25 08:32:11;;;;;;;;;2.00;2.00;;;;;17.39;100.00;97413.84;6216989;28;96236;-60
2023/12/25 08:35:15;;;;;;;;;1.80;1.80;;;;;17.28;100.00;97418.66;6209059;28;97629;-60
2023/12/25 08:38:18;;;;;;;;;1.00;1.00;;;;;17.19;100.00;97407.66;6209788;28;97115;-60
2023/12/25 08:41:21;;;;;;;;;1.00;1.00;;;;;17.20;100.00;97406.53;6200316;28;97463;-60
2023/12/25 08:44:24;;;;;;;;;3.00;3.00;;;;;17.13;100.00;97418.94;6212153;28;96424;-60
2023/12/25 08:47:27;;;;;;;;;3.00;3.00;;;;;17.22;100.00;97409.78;6185178;28;96475;-60
2023/12/25 08:50:32;;;;;;;;;2.00;2.00;;;;;17.30;100.00;97419.97;6166017;28;96689;-60
2023/12/25 08:53:35;;;;;;;;;3.00;3.00;;;;;17.26;100.00;97426.31;6199967;28;96296;-59
2023/12/25 08:56:38;;;;;;;;;2.00;2.00;;;;;17.06;100.00;97435.66;6205378;28;97743;-60
2023/12/25 08:59:42;;;;;;;;;3.00;3.00;;;;;17.05;100.00;97425.88;6207780;28;96365;-58
2023/12/25 09:02:45;;;;;;;;;1.80;1.80;;;;;17.00;100.00;97422.44;6215904;28;97570;-60
2023/12/25 09:05:50;;;;;;;;;3.00;3.00;;;;;16.95;100.00;97419.81;6207453;28;97483;-60
2023/12/25 09:08:55;;;;;;;;;3.00;2.00;;;;;16.96;100.00;97437.75;6223377;28;96710;-60
2023/12/25 09:11:58;;;;;;;;;2.00;2.00;;;;;16.95;100.00;97436.13;6234469;28;96422;-57
2023/12/25 09:15:03;;;;;;;;;1.00;1.00;;;;;16.91;100.00;97435.91;6245287;28;96282;-57
2023/12/25 09:18:06;;;;;;;;;2.00;2.00;;;;;16.81;100.00;97442.31;6244092;28;96672;-56
2023/12/25 09:21:12;;;;;;;;;2.40;2.40;;;;;16.84;100.00;97443.66;6236065;28;96816;-58
2023/12/25 09:24:15;;;;;;;;;3.00;3.00;;;;;16.69;100.00;97439.25;6234642;28;96436;-58
2023/12/25 09:27:19;;;;;;;;;2.80;2.80;;;;;16.63;100.00;97423.31;6224443;28;96899;-57
2023/12/25 09:30:22;;;;;;;;;2.00;1.60;;;;;16.54;100.00;97408.72;6235164;28;96283;-57
2023/12/25 09:33:25;;;;;;;;;2.00;2.00;;;;;16.61;100.00;97417.38;6229732;28;96370;-57
2023/12/25 09:36:30;;;;;;;;;2.75;2.75;;;;;16.57;100.00;97432.59;6226689;28;96512;-57
2023/12/25 09:39:33;;;;;;;;;3.00;3.00;;;;;16.66;100.00;97428.16;6227266;28;96420;-57
2023/12/25 09:42:36;;;;;;;;;4.00;3.00;;;;;16.57;100.00;97421.72;6241462;28;96744;-57
2023/12/25 09:45:39;;;;;;;;;3.00;3.00;;;;;16.61;100.00;97441.84;6236973;28;96285;-57
2023/12/25 09:48:43;;;;;;;;;3.50;3.50;;;;;16.61;100.00;97439.94;6234953;28;96207;-57
2023/12/25 09:51:50;;;;;;;;;3.00;3.00;;;;;16.39;100.00;97407.03;6224570;28;96275;-57
2023/12/25 09:54:53;;;;;;;;;1.00;1.00;;;;;16.47;100.00;97406.38;6235002;28;96382;-57
2023/12/25 09:58:00;;;;;;;;;2.60;2.00;;;;;16.61;100.00;97428.25;6241007;28;96516;-57
2023/12/25 10:01:03;;;;;;;;;2.00;2.00;;;;;16.59;100.00;97423.09;6230259;28;96321;-57
2023/12/25 10:04:07;;;;;;;;;3.00;3.00;;;;;16.58;100.00;97426.91;6223433;28;97014;-56
2023/12/25 10:07:11;;;;;;;;;3.25;3.25;;;;;16.49;100.00;97434.09;6236484;28;96397;-58
2023/12/25 10:10:15;;;;;;;;;2.00;2.00;;;;;16.25;100.00;97419.75;6235672;28;96267;-58
2023/12/25 10:13:18;;;;;;;;;2.00;2.00;;;;;16.43;100.00;97446.97;6235838;28;96321;-57
2023/12/25 10:16:22;;;;;;;;;1.00;1.00;;;;;16.40;100.00;97414.09;6230643;28;96741;-57
2023/12/25 10:19:25;;;;;;;;;2.00;2.00;;;;;16.31;100.00;97418.59;6220183;28;96486;-60
2023/12/25 10:22:32;;;;;;;;;2.20;2.20;;;;;16.24;100.00;97423.56;6202215;28;97472;-60
2023/12/25 10:25:42;;;;;;;;;3.40;3.40;;;;;16.26;100.00;97435.78;6209742;28;96493;-60
2023/12/25 10:28:45;;;;;;;;;3.00;3.00;;;;;16.23;100.00;97417.31;6175026;28;96670;-59
2023/12/25 10:31:48;;;;;;;;;4.00;4.00;;;;;16.26;100.00;97437.72;6210472;28;96626;-60
2023/12/25 10:34:52;;;;;;;;;1.20;1.20;;;;;16.31;100.00;97438.44;6213999;28;96596;-60
2023/12/25 10:37:57;;;;;;;;;2.00;2.00;;;;;16.31;100.00;97453.94;6205737;28;98993;-60
2023/12/25 10:41:17;;;;;;;;;2.00;2.00;;;;;16.42;100.00;97433.63;6189695;28;98815;-60
2023/12/25 10:44:20;;;;;;;;;1.80;1.80;;;;;16.51;100.00;97431.91;6210109;28;96724;-60
2023/12/25 10:47:23;;;;;;;;;3.00;3.00;;;;;16.46;100.00;97443.66;6209223;28;96375;-60
2023/12/25 10:50:30;;;;;;;;;2.75;2.75;;;;;16.54;100.00;97449.53;6210864;28;96397;-60
2023/12/25 10:53:35;;;;;;;;;3.00;2.00;;;;;16.43;100.00;97446.97;6207831;28;96366;-60
2023/12/25 10:56:40;;;;;;;;;2.60;2.60;;;;;16.38;100.00;97441.59;6193360;28;96842;-60
2023/12/25 10:59:45;;;;;;;;;2.40;2.40;;;;;16.33;100.00;97429.97;6192544;28;98411;-59
2023/12/25 11:02:53;;;;;;;;;3.00;3.00;;;;;16.30;100.00;97441.44;6181276;28;96397;-60
2023/12/25 11:05:57;;;;;;;;;3.00;2.40;;;;;16.36;100.00;97449.25;6187801;28;96434;-60
2023/12/25 11:09:02;;;;;;;;;1.00;1.00;;;;;16.27;100.00;97452.94;6169885;28;97073;-60
2023/12/25 11:12:06;;;;;;;;;1.20;1.20;;;;;16.28;100.00;97440.91;6184053;28;96344;-60
2023/12/25 11:15:11;;;;;;;;;3.00;3.00;;;;;16.26;100.00;97446.66;6185204;28;97680;-60
2023/12/25 11:18:15;;;;;;;;;1.60;1.60;;;;;16.17;100.00;97472.91;6187274;28;96963;-60
2023/12/25 11:21:29;;;;;;;;;3.00;2.80;;;;;16.21;100.00;97433.16;6184879;28;96377;-59
2023/12/25 11:24:34;;;;;;;;;3.00;2.00;;;;;16.19;100.00;97459.81;6184824;28;97067;-60
2023/12/25 11:27:37;;;;;;;;;3.00;2.00;;;;;16.18;100.00;97432.91;6186878;28;96424;-60
2023/12/25 11:30:42;;;;;;;;;3.00;3.00;;;;;16.15;100.00;97428.06;6186312;28;96797;-58
2023/12/25 11:33:49;;;;;;;;;2.00;2.00;;;;;16.20;100.00;97441.59;6186858;28;96438;-58
2023/12/25 11:36:56;;;;;;;;;1.60;1.60;;;;;16.16;100.00;97435.13;6178160;28;96738;-59
2023/12/25 11:40:05;;;;;;;;;3.00;3.00;;;;;16.16;100.00;97443.28;6181750;28;96742;-58
2023/12/25 11:43:09;;;;;;;;;2.60;2.60;;;;;16.19;100.00;97424.47;6183768;28;96463;-58
2023/12/25 11:46:18;;;;;;;;;1.80;1.80;;;;;16.23;100.00;97425.47;6184870;28;96472;-59
2023/12/25 11:49:21;;;;;;;;;3.40;3.00;;;;;16.17;100.00;97423.16;6184957;28;97137;-58
2023/12/25 11:52:53;;;;;;;;;3.00;3.00;;;;;16.16;100.00;97443.28;6187695;28;96975;-58
2023/12/25 11:55:57;;;;;;;;;2.00;2.00;;;;;16.01;100.00;97447.00;6182387;28;98071;-58
2023/12/25 11:59:01;;;;;;;;;3.00;2.00;;;;;16.11;100.00;97433.28;6178347;28;97082;-58
2023/12/25 12:02:08;;;;;;;;;2.00;2.00;;;;;16.13;100.00;97433.78;6180720;28;96708;-58
2023/12/25 12:05:11;;;;;;;;;1.80;1.80;;;;;16.15;100.00;97450.63;6200673;28;96719;-58
2023/12/25 12:08:14;;;;;;;;;4.00;3.40;;;;;16.14;100.00;97448.19;6205517;28;97256;-58
2023/12/25 12:11:20;;;;;;;;;1.00;1.00;;;;;16.06;100.00;97459.72;6200087;28;97561;-58
2023/12/25 12:14:25;;;;;;;;;2.00;2.00;;;;;16.04;100.00;97473.59;6199977;28;96221;-58
2023/12/25 12:17:29;;;;;;;;;3.00;2.00;;;;;16.06;100.00;97454.28;6202954;28;96720;-58
2023/12/25 12:20:33;;;;;;;;;2.00;2.00;;;;;16.26;100.00;97454.84;6191478;28;96511;-58
2023/12/25 12:23:36;;;;;;;;;3.00;3.00;;;;;16.31;100.00;97443.88;6199462;28;96400;-59
2023/12/25 12:26:40;;;;;;;;;2.00;2.00;;;;;16.33;100.00;97459.88;6204257;28;97254;-58
2023/12/25 12:29:43;;;;;;;;;3.00;3.00;;;;;16.35;100.00;97461.22;6206298;28;96450;-58
2023/12/25 12:32:47;;;;;;;;;1.00;1.00;;;;;16.31;100.00;97464.81;6196357;28;96811;-58
2023/12/25 12:35:51;;;;;;;;;3.00;3.00;;;;;16.35;100.00;97461.22;6205678;28;96458;-58
2023/12/25 12:38:54;;;;;;;;;2.00;2.00;;;;;16.21;100.00;97454.09;6194091;28;96666;-58
2023/12/25 12:42:00;;;;;;;;;3.60;3.60;;;;;16.30;100.00;97450.41;6200521;28;96358;-55
2023/12/25 12:45:03;;;;;;;;;3.00;3.00;;;;;16.37;100.00;97469.09;6199616;28;96023;-55
2023/12/25 12:48:07;;;;;;;;;2.00;2.00;;;;;16.20;100.00;97464.16;6197522;28;96411;-57
2023/12/25 12:51:11;;;;;;;;;1.60;1.60;;;;;16.27;100.00;97469.25;6191535;28;96572;-56
2023/12/25 12:54:14;;;;;;;;;2.00;2.00;;;;;16.58;100.00;97477.75;6203579;28;96387;-56
2023/12/25 12:57:19;;;;;;;;;2.00;2.00;;;;;16.45;100.00;97463.00;6214067;28;96615;-56
2023/12/25 13:00:22;;;;;;;;;3.00;3.00;;;;;16.55;100.00;97470.19;6216019;28;96379;-55
2023/12/25 13:03:25;;;;;;;;;2.00;2.00;;;;;16.61;100.00;97485.38;6223791;28;96385;-56
2023/12/25 13:06:28;;;;;;;;;4.00;3.00;;;;;16.60;100.00;97492.72;6216779;28;96269;-55
2023/12/25 13:09:32;;;;;;;;;3.60;3.60;;;;;16.46;100.00;97484.47;6206237;28;96596;-55
2023/12/25 13:12:36;;;;;;;;;3.00;3.00;;;;;16.44;100.00;97500.25;6214597;28;96467;-56
2023/12/25 13:15:39;;;;;;;;;3.00;3.00;;;;;16.52;100.00;97492.56;6199868;28;97458;-56
2023/12/25 13:18:43;;;;;;;;;3.80;3.80;;;;;16.51;100.00;97496.38;6206278;28;96492;-56
2023/12/25 13:21:46;;;;;;;;;4.00;4.00;;;;;16.52;100.00;97514.31;6202982;28;96673;-58
2023/12/25 13:24:49;;;;;;;;;3.00;3.00;;;;;16.51;100.00;97529.84;6220658;28;96257;-56
2023/12/25 13:27:54;;;;;;;;;3.00;3.00;;;;;16.47;100.00;97532.31;6213365;28;97153;-56
2023/12/25 13:30:57;;;;;;;;;3.00;3.00;;;;;16.50;100.00;97546.44;6190854;28;97943;-56
2023/12/25 13:34:00;;;;;;;;;3.25;3.25;;;;;16.46;100.00;97557.91;6206549;28;96136;-56
2023/12/25 13:37:05;;;;;;;;;3.80;3.40;;;;;16.39;100.00;97565.59;6215232;28;96563;-56
2023/12/25 13:40:09;;;;;;;;;4.25;3.25;;;;;16.38;100.00;97574.88;6217808;28;96904;-57
2023/12/25 13:43:13;;;;;;;;;4.00;4.00;;;;;16.35;100.00;97558.31;6202590;28;96762;-57
2023/12/25 13:46:18;;;;;;;;;2.60;2.00;;;;;16.27;100.00;97562.47;6215461;28;96399;-56
2023/12/25 13:49:21;;;;;;;;;2.50;2.50;;;;;16.29;100.00;97579.31;6216842;28;96244;-61
2023/12/25 13:52:24;;;;;;;;;2.20;2.00;;;;;16.19;100.00;97574.00;6203911;28;96351;-61
2023/12/25 13:55:27;;;;;;;;;3.40;3.40;;;;;16.25;100.00;97586.44;6197620;28;96496;-60
2023/12/25 13:58:32;;;;;;;;;3.40;3.40;;;;;16.26;100.00;97590.78;6212400;28;96708;-60
2023/12/25 14:01:35;;;;;;;;;3.00;3.00;;;;;16.24;100.00;97587.53;6212336;28;96603;-61
2023/12/25 14:04:38;;;;;;;;;4.00;3.00;;;;;16.32;100.00;97586.09;6214438;28;96510;-61
2023/12/25 14:07:41;;;;;;;;;4.60;4.00;;;;;16.32;100.00;97588.84;6194415;28;96637;-61
2023/12/25 14:10:45;;;;;;;;;3.00;3.00;;;;;16.14;100.00;97589.56;6206302;28;98969;-60
2023/12/25 14:13:49;;;;;;;;;3.25;2.75;;;;;16.16;100.00;97585.47;6211781;28;96729;-60